sensor_id;sensor_type;location;lat;lon;timestamp;P1;durP1;ratioP1;P2;durP2;ratioP2
72895;SDS011;61036;53.224;6.554;2023-09-08T00:00:08;8.90;;;7.17;;
72895;SDS011;61036;53.224;6.554;2023-09-08T00:02:34;9.77;;;6.90;;
72895;SDS011;61036;53.224;6.554;2023-09-08T00:05:00;10.00;;;7.00;;
72895;SDS011;61036;53.224;6.554;2023-09-08T00:07:25;10.03;;;6.73;;
72895;SDS011;61036;53.224;6.554;2023-09-08T00:09:51;9.70;;;7.50;;
72895;SDS011;61036;53.224;6.554;2023-09-08T00:12:16;9.80;;;6.90;;
72895;SDS011;61036;53.224;6.554;2023-09-08T00:14:42;11.57;;;7.03;;
72895;SDS011;61036;53.224;6.554;2023-09-08T00:17:08;13.87;;;7.83;;
72895;SDS011;61036;53.224;6.554;2023-09-08T00:19:34;10.20;;;7.43;;
72895;SDS011;61036;53.224;6.554;2023-09-08T00:21:59;10.80;;;7.60;;
72895;SDS011;61036;53.224;6.554;2023-09-08T00:24:26;9.73;;;7.23;;
72895;SDS011;61036;53.224;6.554;2023-09-08T00:26:52;10.20;;;7.43;;
72895;SDS011;61036;53.224;6.554;2023-09-08T00:29:18;9.20;;;7.23;;
72895;SDS011;61036;53.224;6.554;2023-09-08T00:31:43;12.23;;;7.70;;
72895;SDS011;61036;53.224;6.554;2023-09-08T00:34:09;11.83;;;7.17;;
72895;SDS011;61036;53.224;6.554;2023-09-08T00:36:36;9.73;;;7.63;;
72895;SDS011;61036;53.224;6.554;2023-09-08T00:39:01;9.67;;;7.17;;
72895;SDS011;61036;53.224;6.554;2023-09-08T00:41:27;9.97;;;7.03;;
72895;SDS011;61036;53.224;6.554;2023-09-08T00:43:53;10.40;;;7.10;;
72895;SDS011;61036;53.224;6.554;2023-09-08T00:46:18;8.57;;;6.73;;
72895;SDS011;61036;53.224;6.554;2023-09-08T00:48:44;10.27;;;7.27;;
72895;SDS011;61036;53.224;6.554;2023-09-08T00:51:10;10.87;;;7.57;;
72895;SDS011;61036;53.224;6.554;2023-09-08T00:53:36;12.80;;;7.77;;
72895;SDS011;61036;53.224;6.554;2023-09-08T00:56:02;10.93;;;8.33;;
72895;SDS011;61036;53.224;6.554;2023-09-08T00:58:28;11.33;;;7.90;;
72895;SDS011;61036;53.224;6.554;2023-09-08T01:00:55;9.23;;;7.10;;
72895;SDS011;61036;53.224;6.554;2023-09-08T01:03:23;9.47;;;7.40;;
72895;SDS011;61036;53.224;6.554;2023-09-08T01:05:49;10.83;;;7.50;;
72895;SDS011;61036;53.224;6.554;2023-09-08T01:08:15;11.50;;;7.67;;
72895;SDS011;61036;53.224;6.554;2023-09-08T01:10:42;9.83;;;7.53;;
72895;SDS011;61036;53.224;6.554;2023-09-08T01:13:08;11.97;;;8.40;;
72895;SDS011;61036;53.224;6.554;2023-09-08T01:15:34;9.80;;;8.03;;
72895;SDS011;61036;53.224;6.554;2023-09-08T01:17:59;10.90;;;7.27;;
72895;SDS011;61036;53.224;6.554;2023-09-08T01:20:25;9.70;;;7.33;;
72895;SDS011;61036;53.224;6.554;2023-09-08T01:25:46;12.13;;;7.67;;
72895;SDS011;61036;53.224;6.554;2023-09-08T01:28:17;9.83;;;7.47;;
72895;SDS011;61036;53.224;6.554;2023-09-08T01:30:45;14.17;;;8.47;;
72895;SDS011;61036;53.224;6.554;2023-09-08T01:33:12;10.10;;;7.27;;
72895;SDS011;61036;53.224;6.554;2023-09-08T01:35:38;10.50;;;7.63;;
72895;SDS011;61036;53.224;6.554;2023-09-08T01:38:03;11.60;;;8.07;;
72895;SDS011;61036;53.224;6.554;2023-09-08T01:40:30;11.53;;;7.90;;
72895;SDS011;61036;53.224;6.554;2023-09-08T01:42:56;11.27;;;7.77;;
72895;SDS011;61036;53.224;6.554;2023-09-08T01:45:21;12.00;;;7.70;;
72895;SDS011;61036;53.224;6.554;2023-09-08T01:47:47;10.40;;;8.03;;
72895;SDS011;61036;53.224;6.554;2023-09-08T01:50:12;10.10;;;6.87;;
72895;SDS011;61036;53.224;6.554;2023-09-08T01:52:38;9.03;;;6.80;;
72895;SDS011;61036;53.224;6.554;2023-09-08T01:55:04;11.33;;;7.37;;
72895;SDS011;61036;53.224;6.554;2023-09-08T01:57:29;11.67;;;7.77;;
72895;SDS011;61036;53.224;6.554;2023-09-08T01:59:55;9.97;;;8.50;;
72895;SDS011;61036;53.224;6.554;2023-09-08T02:02:20;11.23;;;8.17;;
72895;SDS011;61036;53.224;6.554;2023-09-08T02:04:46;10.73;;;7.67;;
72895;SDS011;61036;53.224;6.554;2023-09-08T02:07:12;10.50;;;7.93;;
72895;SDS011;61036;53.224;6.554;2023-09-08T02:09:37;10.10;;;8.00;;
72895;SDS011;61036;53.224;6.554;2023-09-08T02:12:03;13.10;;;8.67;;
72895;SDS011;61036;53.224;6.554;2023-09-08T02:14:29;10.83;;;8.10;;
72895;SDS011;61036;53.224;6.554;2023-09-08T02:16:55;10.00;;;7.53;;
72895;SDS011;61036;53.224;6.554;2023-09-08T02:19:22;11.47;;;7.63;;
72895;SDS011;61036;53.224;6.554;2023-09-08T02:21:48;9.70;;;7.43;;
72895;SDS011;61036;53.224;6.554;2023-09-08T02:24:14;11.20;;;7.70;;
72895;SDS011;61036;53.224;6.554;2023-09-08T02:26:40;8.90;;;6.87;;
72895;SDS011;61036;53.224;6.554;2023-09-08T02:29:06;10.57;;;7.27;;
72895;SDS011;61036;53.224;6.554;2023-09-08T02:31:32;12.53;;;8.50;;
72895;SDS011;61036;53.224;6.554;2023-09-08T02:34:00;9.73;;;7.10;;
72895;SDS011;61036;53.224;6.554;2023-09-08T02:36:26;9.90;;;7.90;;
72895;SDS011;61036;53.224;6.554;2023-09-08T02:38:54;10.33;;;7.37;;
72895;SDS011;61036;53.224;6.554;2023-09-08T02:41:21;11.30;;;9.03;;
72895;SDS011;61036;53.224;6.554;2023-09-08T02:43:47;10.03;;;8.27;;
72895;SDS011;61036;53.224;6.554;2023-09-08T02:46:13;10.53;;;8.83;;
72895;SDS011;61036;53.224;6.554;2023-09-08T02:48:39;10.33;;;8.27;;
72895;SDS011;61036;53.224;6.554;2023-09-08T02:51:05;10.67;;;8.17;;
72895;SDS011;61036;53.224;6.554;2023-09-08T02:53:31;10.37;;;7.50;;
72895;SDS011;61036;53.224;6.554;2023-09-08T02:55:57;13.37;;;8.40;;
72895;SDS011;61036;53.224;6.554;2023-09-08T02:58:24;11.83;;;9.00;;
72895;SDS011;61036;53.224;6.554;2023-09-08T03:00:50;9.10;;;7.00;;
72895;SDS011;61036;53.224;6.554;2023-09-08T03:03:17;10.40;;;8.83;;
72895;SDS011;61036;53.224;6.554;2023-09-08T03:05:43;12.93;;;8.40;;
72895;SDS011;61036;53.224;6.554;2023-09-08T03:08:10;11.60;;;8.00;;
72895;SDS011;61036;53.224;6.554;2023-09-08T03:10:36;12.17;;;8.43;;
72895;SDS011;61036;53.224;6.554;2023-09-08T03:13:02;12.67;;;7.87;;
72895;SDS011;61036;53.224;6.554;2023-09-08T03:15:28;13.50;;;8.83;;
72895;SDS011;61036;53.224;6.554;2023-09-08T03:17:54;9.93;;;7.30;;
72895;SDS011;61036;53.224;6.554;2023-09-08T03:20:20;11.07;;;7.97;;
72895;SDS011;61036;53.224;6.554;2023-09-08T03:22:46;11.03;;;7.97;;
72895;SDS011;61036;53.224;6.554;2023-09-08T03:25:15;11.17;;;8.90;;
72895;SDS011;61036;53.224;6.554;2023-09-08T03:27:41;11.37;;;7.87;;
72895;SDS011;61036;53.224;6.554;2023-09-08T03:30:07;10.03;;;8.13;;
72895;SDS011;61036;53.224;6.554;2023-09-08T03:32:33;10.70;;;8.67;;
72895;SDS011;61036;53.224;6.554;2023-09-08T03:34:59;13.70;;;9.63;;
72895;SDS011;61036;53.224;6.554;2023-09-08T03:37:25;9.83;;;8.30;;
72895;SDS011;61036;53.224;6.554;2023-09-08T03:39:53;11.23;;;8.63;;
72895;SDS011;61036;53.224;6.554;2023-09-08T03:42:19;11.30;;;9.23;;
72895;SDS011;61036;53.224;6.554;2023-09-08T03:44:46;12.43;;;8.90;;
72895;SDS011;61036;53.224;6.554;2023-09-08T03:47:13;13.27;;;9.33;;
72895;SDS011;61036;53.224;6.554;2023-09-08T03:49:39;12.43;;;9.13;;
72895;SDS011;61036;53.224;6.554;2023-09-08T03:52:04;11.50;;;9.17;;
72895;SDS011;61036;53.224;6.554;2023-09-08T03:54:30;13.13;;;8.67;;
72895;SDS011;61036;53.224;6.554;2023-09-08T03:56:55;9.43;;;7.83;;
72895;SDS011;61036;53.224;6.554;2023-09-08T03:59:21;13.43;;;9.13;;
72895;SDS011;61036;53.224;6.554;2023-09-08T04:01:47;10.93;;;7.83;;
72895;SDS011;61036;53.224;6.554;2023-09-08T04:04:13;15.30;;;10.10;;
72895;SDS011;61036;53.224;6.554;2023-09-08T04:06:38;12.03;;;9.30;;
72895;SDS011;61036;53.224;6.554;2023-09-08T04:09:04;13.43;;;9.10;;
72895;SDS011;61036;53.224;6.554;2023-09-08T04:11:29;11.43;;;8.87;;
72895;SDS011;61036;53.224;6.554;2023-09-08T04:13:55;11.33;;;8.47;;
72895;SDS011;61036;53.224;6.554;2023-09-08T04:16:21;11.80;;;8.67;;
72895;SDS011;61036;53.224;6.554;2023-09-08T04:18:48;11.63;;;8.40;;
72895;SDS011;61036;53.224;6.554;2023-09-08T04:21:13;11.77;;;9.20;;
72895;SDS011;61036;53.224;6.554;2023-09-08T04:23:39;12.00;;;8.73;;
72895;SDS011;61036;53.224;6.554;2023-09-08T04:26:04;12.13;;;9.07;;
72895;SDS011;61036;53.224;6.554;2023-09-08T04:28:30;11.13;;;7.57;;
72895;SDS011;61036;53.224;6.554;2023-09-08T04:30:56;14.53;;;9.77;;
72895;SDS011;61036;53.224;6.554;2023-09-08T04:33:23;12.37;;;8.90;;
72895;SDS011;61036;53.224;6.554;2023-09-08T04:35:52;13.60;;;9.57;;
72895;SDS011;61036;53.224;6.554;2023-09-08T04:38:18;14.03;;;9.33;;
72895;SDS011;61036;53.224;6.554;2023-09-08T04:40:45;11.63;;;9.27;;
72895;SDS011;61036;53.224;6.554;2023-09-08T04:43:11;11.60;;;8.50;;
72895;SDS011;61036;53.224;6.554;2023-09-08T04:45:36;11.87;;;9.53;;
72895;SDS011;61036;53.224;6.554;2023-09-08T04:48:02;12.20;;;9.57;;
72895;SDS011;61036;53.224;6.554;2023-09-08T04:50:29;12.50;;;9.63;;
72895;SDS011;61036;53.224;6.554;2023-09-08T04:52:55;14.03;;;9.50;;
72895;SDS011;61036;53.224;6.554;2023-09-08T04:55:20;13.83;;;10.23;;
72895;SDS011;61036;53.224;6.554;2023-09-08T04:57:46;12.67;;;9.60;;
72895;SDS011;61036;53.224;6.554;2023-09-08T05:00:12;15.50;;;10.60;;
72895;SDS011;61036;53.224;6.554;2023-09-08T05:02:38;14.77;;;10.27;;
72895;SDS011;61036;53.224;6.554;2023-09-08T05:05:04;11.50;;;9.53;;
72895;SDS011;61036;53.224;6.554;2023-09-08T05:07:30;13.00;;;9.53;;
72895;SDS011;61036;53.224;6.554;2023-09-08T05:09:56;12.27;;;9.57;;
72895;SDS011;61036;53.224;6.554;2023-09-08T05:12:21;15.20;;;9.87;;
72895;SDS011;61036;53.224;6.554;2023-09-08T05:14:47;11.60;;;9.40;;
72895;SDS011;61036;53.224;6.554;2023-09-08T05:17:13;12.97;;;9.90;;
72895;SDS011;61036;53.224;6.554;2023-09-08T05:19:38;15.00;;;9.50;;
72895;SDS011;61036;53.224;6.554;2023-09-08T05:22:04;13.13;;;9.70;;
72895;SDS011;61036;53.224;6.554;2023-09-08T05:24:32;12.80;;;9.57;;
72895;SDS011;61036;53.224;6.554;2023-09-08T05:26:58;11.07;;;9.23;;
72895;SDS011;61036;53.224;6.554;2023-09-08T05:29:24;16.03;;;10.90;;
72895;SDS011;61036;53.224;6.554;2023-09-08T05:31:50;17.03;;;9.63;;
72895;SDS011;61036;53.224;6.554;2023-09-08T05:34:17;13.87;;;10.13;;
72895;SDS011;61036;53.224;6.554;2023-09-08T05:36:43;14.07;;;10.17;;
72895;SDS011;61036;53.224;6.554;2023-09-08T05:39:09;14.80;;;10.03;;
72895;SDS011;61036;53.224;6.554;2023-09-08T05:41:35;13.97;;;10.30;;
72895;SDS011;61036;53.224;6.554;2023-09-08T05:44:02;15.03;;;10.27;;
72895;SDS011;61036;53.224;6.554;2023-09-08T05:46:28;12.63;;;10.37;;
72895;SDS011;61036;53.224;6.554;2023-09-08T05:48:53;13.87;;;10.37;;
72895;SDS011;61036;53.224;6.554;2023-09-08T05:51:19;15.57;;;10.30;;
72895;SDS011;61036;53.224;6.554;2023-09-08T05:53:45;14.17;;;10.00;;
72895;SDS011;61036;53.224;6.554;2023-09-08T05:56:11;15.53;;;10.40;;
72895;SDS011;61036;53.224;6.554;2023-09-08T05:58:39;18.53;;;10.77;;
72895;SDS011;61036;53.224;6.554;2023-09-08T06:01:04;13.57;;;9.90;;
72895;SDS011;61036;53.224;6.554;2023-09-08T06:03:32;15.10;;;10.77;;
72895;SDS011;61036;53.224;6.554;2023-09-08T06:05:57;16.37;;;11.07;;
72895;SDS011;61036;53.224;6.554;2023-09-08T06:08:23;19.43;;;12.17;;
72895;SDS011;61036;53.224;6.554;2023-09-08T06:10:50;15.33;;;10.73;;
72895;SDS011;61036;53.224;6.554;2023-09-08T06:13:16;16.10;;;10.10;;
72895;SDS011;61036;53.224;6.554;2023-09-08T06:15:42;13.13;;;10.20;;
72895;SDS011;61036;53.224;6.554;2023-09-08T06:18:08;17.83;;;10.30;;
72895;SDS011;61036;53.224;6.554;2023-09-08T06:20:33;14.20;;;10.27;;
72895;SDS011;61036;53.224;6.554;2023-09-08T06:23:00;13.90;;;10.67;;
72895;SDS011;61036;53.224;6.554;2023-09-08T06:25:26;15.00;;;10.17;;
72895;SDS011;61036;53.224;6.554;2023-09-08T06:27:53;13.40;;;10.03;;
72895;SDS011;61036;53.224;6.554;2023-09-08T06:30:19;14.73;;;10.37;;
72895;SDS011;61036;53.224;6.554;2023-09-08T06:32:45;11.60;;;9.70;;
72895;SDS011;61036;53.224;6.554;2023-09-08T06:35:11;12.53;;;9.60;;
72895;SDS011;61036;53.224;6.554;2023-09-08T06:37:37;12.50;;;9.37;;
72895;SDS011;61036;53.224;6.554;2023-09-08T06:40:04;17.27;;;9.77;;
72895;SDS011;61036;53.224;6.554;2023-09-08T06:42:30;12.67;;;9.60;;
72895;SDS011;61036;53.224;6.554;2023-09-08T06:45:06;11.87;;;9.37;;
72895;SDS011;61036;53.224;6.554;2023-09-08T06:47:35;15.87;;;9.53;;
72895;SDS011;61036;53.224;6.554;2023-09-08T06:50:00;12.03;;;8.73;;
72895;SDS011;61036;53.224;6.554;2023-09-08T06:52:26;15.23;;;9.57;;
72895;SDS011;61036;53.224;6.554;2023-09-08T06:54:51;27.20;;;10.97;;
72895;SDS011;61036;53.224;6.554;2023-09-08T06:57:18;19.40;;;9.53;;
72895;SDS011;61036;53.224;6.554;2023-09-08T06:59:45;20.07;;;9.17;;
72895;SDS011;61036;53.224;6.554;2023-09-08T07:02:11;16.83;;;9.70;;
72895;SDS011;61036;53.224;6.554;2023-09-08T07:04:36;12.50;;;9.53;;
72895;SDS011;61036;53.224;6.554;2023-09-08T07:07:02;12.00;;;9.07;;
72895;SDS011;61036;53.224;6.554;2023-09-08T07:09:34;14.40;;;9.10;;
72895;SDS011;61036;53.224;6.554;2023-09-08T07:12:01;12.57;;;9.53;;
72895;SDS011;61036;53.224;6.554;2023-09-08T07:14:27;11.57;;;8.63;;
72895;SDS011;61036;53.224;6.554;2023-09-08T07:16:53;12.20;;;9.07;;
72895;SDS011;61036;53.224;6.554;2023-09-08T07:19:18;17.27;;;8.90;;
72895;SDS011;61036;53.224;6.554;2023-09-08T07:21:44;11.50;;;7.83;;
72895;SDS011;61036;53.224;6.554;2023-09-08T07:24:10;11.17;;;8.57;;
72895;SDS011;61036;53.224;6.554;2023-09-08T07:26:35;10.23;;;8.07;;
72895;SDS011;61036;53.224;6.554;2023-09-08T07:29:01;14.13;;;9.53;;
72895;SDS011;61036;53.224;6.554;2023-09-08T07:31:27;10.73;;;7.93;;
72895;SDS011;61036;53.224;6.554;2023-09-08T07:33:52;11.87;;;7.13;;
72895;SDS011;61036;53.224;6.554;2023-09-08T07:36:18;9.73;;;7.40;;
72895;SDS011;61036;53.224;6.554;2023-09-08T07:38:44;14.93;;;8.43;;
72895;SDS011;61036;53.224;6.554;2023-09-08T07:41:10;9.70;;;8.00;;
72895;SDS011;61036;53.224;6.554;2023-09-08T07:43:37;11.40;;;7.07;;
72895;SDS011;61036;53.224;6.554;2023-09-08T07:46:07;10.37;;;7.03;;
72895;SDS011;61036;53.224;6.554;2023-09-08T07:48:32;11.50;;;6.90;;
72895;SDS011;61036;53.224;6.554;2023-09-08T07:50:58;10.33;;;6.97;;
72895;SDS011;61036;53.224;6.554;2023-09-08T07:53:25;12.20;;;6.60;;
72895;SDS011;61036;53.224;6.554;2023-09-08T07:55:51;9.97;;;6.80;;
72895;SDS011;61036;53.224;6.554;2023-09-08T07:58:17;9.47;;;5.97;;
72895;SDS011;61036;53.224;6.554;2023-09-08T08:00:43;8.57;;;6.53;;
72895;SDS011;61036;53.224;6.554;2023-09-08T08:03:08;9.23;;;6.97;;
72895;SDS011;61036;53.224;6.554;2023-09-08T08:05:34;9.93;;;7.13;;
72895;SDS011;61036;53.224;6.554;2023-09-08T08:07:59;11.57;;;7.60;;
72895;SDS011;61036;53.224;6.554;2023-09-08T08:10:25;9.57;;;6.90;;
72895;SDS011;61036;53.224;6.554;2023-09-08T08:12:51;10.00;;;7.53;;
72895;SDS011;61036;53.224;6.554;2023-09-08T08:15:18;10.70;;;7.20;;
72895;SDS011;61036;53.224;6.554;2023-09-08T08:17:46;12.73;;;7.30;;
72895;SDS011;61036;53.224;6.554;2023-09-08T08:20:11;9.00;;;7.40;;
72895;SDS011;61036;53.224;6.554;2023-09-08T08:22:42;7.53;;;6.43;;
72895;SDS011;61036;53.224;6.554;2023-09-08T08:25:10;9.40;;;6.63;;
72895;SDS011;61036;53.224;6.554;2023-09-08T08:27:36;7.87;;;7.00;;
72895;SDS011;61036;53.224;6.554;2023-09-08T08:30:02;9.40;;;7.00;;
72895;SDS011;61036;53.224;6.554;2023-09-08T08:32:28;8.67;;;7.50;;
72895;SDS011;61036;53.224;6.554;2023-09-08T08:34:53;10.70;;;7.00;;
72895;SDS011;61036;53.224;6.554;2023-09-08T08:37:19;9.67;;;7.40;;
72895;SDS011;61036;53.224;6.554;2023-09-08T08:39:44;9.57;;;7.63;;
72895;SDS011;61036;53.224;6.554;2023-09-08T08:42:10;10.30;;;7.30;;
72895;SDS011;61036;53.224;6.554;2023-09-08T08:44:38;9.83;;;7.33;;
72895;SDS011;61036;53.224;6.554;2023-09-08T08:47:08;17.63;;;15.77;;
72895;SDS011;61036;53.224;6.554;2023-09-08T08:49:35;11.03;;;7.70;;
72895;SDS011;61036;53.224;6.554;2023-09-08T08:52:01;8.97;;;7.27;;
72895;SDS011;61036;53.224;6.554;2023-09-08T08:54:33;11.80;;;6.80;;
72895;SDS011;61036;53.224;6.554;2023-09-08T08:57:08;9.27;;;6.87;;
72895;SDS011;61036;53.224;6.554;2023-09-08T08:59:34;9.17;;;7.13;;
72895;SDS011;61036;53.224;6.554;2023-09-08T09:02:02;7.83;;;6.80;;
72895;SDS011;61036;53.224;6.554;2023-09-08T09:04:28;9.60;;;6.90;;
72895;SDS011;61036;53.224;6.554;2023-09-08T09:06:55;9.10;;;6.57;;
72895;SDS011;61036;53.224;6.554;2023-09-08T09:09:20;9.37;;;7.00;;
72895;SDS011;61036;53.224;6.554;2023-09-08T09:11:46;10.13;;;7.27;;
72895;SDS011;61036;53.224;6.554;2023-09-08T09:14:12;12.10;;;7.03;;
72895;SDS011;61036;53.224;6.554;2023-09-08T09:16:41;8.13;;;6.60;;
72895;SDS011;61036;53.224;6.554;2023-09-08T09:19:08;8.00;;;6.77;;
72895;SDS011;61036;53.224;6.554;2023-09-08T09:21:46;10.77;;;6.60;;
72895;SDS011;61036;53.224;6.554;2023-09-08T09:24:17;9.10;;;7.03;;
72895;SDS011;61036;53.224;6.554;2023-09-08T09:26:53;8.43;;;6.33;;
72895;SDS011;61036;53.224;6.554;2023-09-08T09:29:19;7.63;;;6.30;;
72895;SDS011;61036;53.224;6.554;2023-09-08T09:31:51;10.10;;;7.63;;
72895;SDS011;61036;53.224;6.554;2023-09-08T09:34:19;8.23;;;6.17;;
72895;SDS011;61036;53.224;6.554;2023-09-08T09:36:47;9.67;;;7.20;;
72895;SDS011;61036;53.224;6.554;2023-09-08T09:39:21;8.33;;;6.57;;
72895;SDS011;61036;53.224;6.554;2023-09-08T09:41:49;8.53;;;6.73;;
72895;SDS011;61036;53.224;6.554;2023-09-08T09:44:18;7.33;;;6.30;;
72895;SDS011;61036;53.224;6.554;2023-09-08T09:46:45;9.53;;;6.80;;
72895;SDS011;61036;53.224;6.554;2023-09-08T09:49:14;7.77;;;6.40;;
72895;SDS011;61036;53.224;6.554;2023-09-08T09:51:43;8.63;;;6.77;;
72895;SDS011;61036;53.224;6.554;2023-09-08T09:54:09;8.20;;;6.70;;
72895;SDS011;61036;53.224;6.554;2023-09-08T09:56:37;9.63;;;6.90;;
72895;SDS011;61036;53.224;6.554;2023-09-08T09:59:03;10.83;;;6.90;;
72895;SDS011;61036;53.224;6.554;2023-09-08T10:01:29;7.50;;;6.50;;
72895;SDS011;61036;53.224;6.554;2023-09-08T10:03:56;12.10;;;6.57;;
72895;SDS011;61036;53.224;6.554;2023-09-08T10:06:23;8.93;;;6.50;;
72895;SDS011;61036;53.224;6.554;2023-09-08T10:08:50;7.30;;;6.20;;
72895;SDS011;61036;53.224;6.554;2023-09-08T10:11:16;8.67;;;6.90;;
72895;SDS011;61036;53.224;6.554;2023-09-08T10:13:46;9.97;;;6.90;;
72895;SDS011;61036;53.224;6.554;2023-09-08T10:16:16;9.60;;;6.87;;
72895;SDS011;61036;53.224;6.554;2023-09-08T10:18:45;9.50;;;6.63;;
72895;SDS011;61036;53.224;6.554;2023-09-08T10:21:12;9.27;;;6.80;;
72895;SDS011;61036;53.224;6.554;2023-09-08T10:23:44;8.13;;;6.23;;
72895;SDS011;61036;53.224;6.554;2023-09-08T10:26:18;8.53;;;6.93;;
72895;SDS011;61036;53.224;6.554;2023-09-08T10:28:51;8.37;;;6.73;;
72895;SDS011;61036;53.224;6.554;2023-09-08T10:31:22;7.77;;;6.83;;
72895;SDS011;61036;53.224;6.554;2023-09-08T10:33:51;10.00;;;7.47;;
72895;SDS011;61036;53.224;6.554;2023-09-08T10:36:18;7.80;;;6.43;;
72895;SDS011;61036;53.224;6.554;2023-09-08T10:38:44;7.27;;;6.17;;
72895;SDS011;61036;53.224;6.554;2023-09-08T10:43:56;9.10;;;6.47;;
72895;SDS011;61036;53.224;6.554;2023-09-08T10:46:23;7.83;;;6.13;;
72895;SDS011;61036;53.224;6.554;2023-09-08T10:48:52;9.17;;;6.67;;
72895;SDS011;61036;53.224;6.554;2023-09-08T10:51:20;9.30;;;6.83;;
72895;SDS011;61036;53.224;6.554;2023-09-08T10:53:48;9.10;;;6.73;;
72895;SDS011;61036;53.224;6.554;2023-09-08T10:56:15;7.83;;;6.60;;
72895;SDS011;61036;53.224;6.554;2023-09-08T10:58:41;9.07;;;6.47;;
72895;SDS011;61036;53.224;6.554;2023-09-08T11:01:13;10.63;;;6.53;;
72895;SDS011;61036;53.224;6.554;2023-09-08T11:06:07;7.33;;;6.27;;
72895;SDS011;61036;53.224;6.554;2023-09-08T11:08:43;8.07;;;6.20;;
72895;SDS011;61036;53.224;6.554;2023-09-08T11:11:10;9.13;;;6.30;;
72895;SDS011;61036;53.224;6.554;2023-09-08T11:13:37;7.70;;;6.00;;
72895;SDS011;61036;53.224;6.554;2023-09-08T11:16:05;9.20;;;5.93;;
72895;SDS011;61036;53.224;6.554;2023-09-08T11:18:31;7.80;;;5.97;;
72895;SDS011;61036;53.224;6.554;2023-09-08T11:21:01;8.33;;;6.27;;
72895;SDS011;61036;53.224;6.554;2023-09-08T11:23:28;7.60;;;6.40;;
72895;SDS011;61036;53.224;6.554;2023-09-08T11:25:54;9.50;;;6.10;;
72895;SDS011;61036;53.224;6.554;2023-09-08T11:28:23;7.57;;;5.97;;
72895;SDS011;61036;53.224;6.554;2023-09-08T11:30:49;8.20;;;6.30;;
72895;SDS011;61036;53.224;6.554;2023-09-08T11:33:16;10.83;;;6.50;;
72895;SDS011;61036;53.224;6.554;2023-09-08T11:35:45;9.63;;;6.53;;
72895;SDS011;61036;53.224;6.554;2023-09-08T11:38:11;12.23;;;6.33;;
72895;SDS011;61036;53.224;6.554;2023-09-08T11:40:37;11.10;;;6.53;;
72895;SDS011;61036;53.224;6.554;2023-09-08T11:43:03;13.13;;;6.33;;
72895;SDS011;61036;53.224;6.554;2023-09-08T11:45:31;8.80;;;6.57;;
72895;SDS011;61036;53.224;6.554;2023-09-08T11:47:59;7.17;;;6.07;;
72895;SDS011;61036;53.224;6.554;2023-09-08T11:50:25;8.97;;;6.50;;
72895;SDS011;61036;53.224;6.554;2023-09-08T11:52:51;9.90;;;5.87;;
72895;SDS011;61036;53.224;6.554;2023-09-08T11:55:18;9.77;;;6.10;;
72895;SDS011;61036;53.224;6.554;2023-09-08T11:57:48;11.20;;;6.20;;
72895;SDS011;61036;53.224;6.554;2023-09-08T12:00:16;7.57;;;5.93;;
72895;SDS011;61036;53.224;6.554;2023-09-08T12:02:45;8.97;;;6.03;;
72895;SDS011;61036;53.224;6.554;2023-09-08T12:05:11;7.63;;;5.73;;
72895;SDS011;61036;53.224;6.554;2023-09-08T12:07:38;7.63;;;5.90;;
72895;SDS011;61036;53.224;6.554;2023-09-08T12:10:08;8.50;;;6.13;;
72895;SDS011;61036;53.224;6.554;2023-09-08T12:12:41;7.07;;;6.07;;
72895;SDS011;61036;53.224;6.554;2023-09-08T12:15:07;7.20;;;6.13;;
72895;SDS011;61036;53.224;6.554;2023-09-08T12:17:33;8.00;;;6.50;;
72895;SDS011;61036;53.224;6.554;2023-09-08T12:19:58;8.03;;;6.53;;
72895;SDS011;61036;53.224;6.554;2023-09-08T12:22:26;8.03;;;6.17;;
72895;SDS011;61036;53.224;6.554;2023-09-08T12:27:18;9.10;;;6.43;;
72895;SDS011;61036;53.224;6.554;2023-09-08T12:32:20;7.53;;;5.67;;
72895;SDS011;61036;53.224;6.554;2023-09-08T12:34:47;7.90;;;5.40;;
72895;SDS011;61036;53.224;6.554;2023-09-08T12:37:12;7.70;;;6.60;;
72895;SDS011;61036;53.224;6.554;2023-09-08T12:39:38;7.50;;;5.50;;
72895;SDS011;61036;53.224;6.554;2023-09-08T12:42:04;8.67;;;5.80;;
72895;SDS011;61036;53.224;6.554;2023-09-08T12:44:30;8.30;;;5.93;;
72895;SDS011;61036;53.224;6.554;2023-09-08T12:46:56;8.17;;;6.10;;
72895;SDS011;61036;53.224;6.554;2023-09-08T12:49:21;7.80;;;5.83;;
72895;SDS011;61036;53.224;6.554;2023-09-08T12:51:46;9.27;;;5.80;;
72895;SDS011;61036;53.224;6.554;2023-09-08T12:54:12;8.60;;;5.70;;
72895;SDS011;61036;53.224;6.554;2023-09-08T12:56:37;7.93;;;6.03;;
72895;SDS011;61036;53.224;6.554;2023-09-08T12:59:03;8.37;;;6.03;;
72895;SDS011;61036;53.224;6.554;2023-09-08T13:01:28;12.17;;;6.10;;
72895;SDS011;61036;53.224;6.554;2023-09-08T13:03:54;8.63;;;5.57;;
72895;SDS011;61036;53.224;6.554;2023-09-08T13:06:19;8.87;;;5.67;;
72895;SDS011;61036;53.224;6.554;2023-09-08T13:08:45;6.77;;;5.43;;
72895;SDS011;61036;53.224;6.554;2023-09-08T13:11:10;7.70;;;5.37;;
72895;SDS011;61036;53.224;6.554;2023-09-08T13:13:36;6.70;;;5.50;;
72895;SDS011;61036;53.224;6.554;2023-09-08T13:16:02;7.43;;;5.80;;
72895;SDS011;61036;53.224;6.554;2023-09-08T13:18:27;9.00;;;6.20;;
72895;SDS011;61036;53.224;6.554;2023-09-08T13:20:53;10.57;;;6.20;;
72895;SDS011;61036;53.224;6.554;2023-09-08T13:23:18;6.70;;;5.43;;
72895;SDS011;61036;53.224;6.554;2023-09-08T13:25:44;8.23;;;5.50;;
72895;SDS011;61036;53.224;6.554;2023-09-08T13:28:10;7.53;;;5.63;;
72895;SDS011;61036;53.224;6.554;2023-09-08T13:30:35;6.60;;;5.60;;
72895;SDS011;61036;53.224;6.554;2023-09-08T13:33:01;10.03;;;6.30;;
72895;SDS011;61036;53.224;6.554;2023-09-08T13:35:26;7.13;;;5.67;;
72895;SDS011;61036;53.224;6.554;2023-09-08T13:37:52;7.27;;;5.77;;
72895;SDS011;61036;53.224;6.554;2023-09-08T13:40:17;7.97;;;6.20;;
72895;SDS011;61036;53.224;6.554;2023-09-08T13:42:43;8.13;;;6.00;;
72895;SDS011;61036;53.224;6.554;2023-09-08T13:45:09;8.47;;;5.73;;
72895;SDS011;61036;53.224;6.554;2023-09-08T13:47:35;7.50;;;5.27;;
72895;SDS011;61036;53.224;6.554;2023-09-08T13:50:02;7.70;;;5.37;;
72895;SDS011;61036;53.224;6.554;2023-09-08T13:52:28;9.67;;;5.87;;
72895;SDS011;61036;53.224;6.554;2023-09-08T13:54:54;7.23;;;5.50;;
72895;SDS011;61036;53.224;6.554;2023-09-08T13:57:19;9.10;;;5.17;;
72895;SDS011;61036;53.224;6.554;2023-09-08T13:59:46;6.70;;;4.97;;
72895;SDS011;61036;53.224;6.554;2023-09-08T14:02:11;9.47;;;5.40;;
72895;SDS011;61036;53.224;6.554;2023-09-08T14:04:37;7.03;;;5.70;;
72895;SDS011;61036;53.224;6.554;2023-09-08T14:07:05;7.57;;;5.23;;
72895;SDS011;61036;53.224;6.554;2023-09-08T14:09:31;6.67;;;4.93;;
72895;SDS011;61036;53.224;6.554;2023-09-08T14:11:56;8.53;;;5.20;;
72895;SDS011;61036;53.224;6.554;2023-09-08T14:14:22;8.20;;;6.10;;
72895;SDS011;61036;53.224;6.554;2023-09-08T14:16:49;6.73;;;5.20;;
72895;SDS011;61036;53.224;6.554;2023-09-08T14:19:15;7.57;;;4.83;;
72895;SDS011;61036;53.224;6.554;2023-09-08T14:21:40;8.30;;;5.30;;
72895;SDS011;61036;53.224;6.554;2023-09-08T14:24:06;7.47;;;5.43;;
72895;SDS011;61036;53.224;6.554;2023-09-08T14:26:32;9.83;;;5.60;;
72895;SDS011;61036;53.224;6.554;2023-09-08T14:28:57;7.47;;;5.07;;
72895;SDS011;61036;53.224;6.554;2023-09-08T14:31:23;7.23;;;5.47;;
72895;SDS011;61036;53.224;6.554;2023-09-08T14:33:48;7.90;;;5.60;;
72895;SDS011;61036;53.224;6.554;2023-09-08T14:36:17;8.37;;;5.53;;
72895;SDS011;61036;53.224;6.554;2023-09-08T14:38:44;6.53;;;5.03;;
72895;SDS011;61036;53.224;6.554;2023-09-08T14:41:09;8.57;;;6.00;;
72895;SDS011;61036;53.224;6.554;2023-09-08T14:43:35;8.87;;;6.13;;
72895;SDS011;61036;53.224;6.554;2023-09-08T14:46:00;7.63;;;6.10;;
72895;SDS011;61036;53.224;6.554;2023-09-08T14:48:28;7.13;;;5.57;;